Time;durP1;ratioP1;P1;durP2;ratioP2;P2;SDS_P1;SDS_P2;PMS_P1;PMS_P2;Temp;Humidity;BMP_temperature;BMP_pressure;BME280_temperature;BME280_humidity;BME280_pressure;Samples;Min_cycle;Max_cycle;Signal;HPM_P1;HPM_P2
2021/01/28 00:01:12;;;;;;;10.80;6.17;;;;;;;-0.28;81.69;99223.00;1722013;82;22962;-49
2021/01/28 00:03:40;;;;;;;10.80;6.35;;;;;;;-0.29;81.76;99208.31;1718471;82;21177;-49
2021/01/28 00:06:09;;;;;;;11.85;6.90;;;;;;;-0.33;81.80;99196.41;1723591;82;21209;-49
2021/01/28 00:08:38;;;;;;;12.07;6.70;;;;;;;-0.39;81.98;99181.98;1716148;82;21143;-49
2021/01/28 00:11:05;;;;;;;11.25;6.37;;;;;;;-0.43;82.09;99173.16;1723076;82;21106;-48
2021/01/28 00:13:33;;;;;;;12.23;7.15;;;;;;;-0.46;82.27;99168.50;1731230;82;21190;-48
2021/01/28 00:16:01;;;;;;;12.82;6.65;;;;;;;-0.49;82.42;99166.52;1730947;82;21161;-49
2021/01/28 00:18:28;;;;;;;12.37;6.83;;;;;;;-0.50;82.63;99166.14;1729809;82;22004;-48
2021/01/28 00:20:56;;;;;;;12.60;7.28;;;;;;;-0.52;82.67;99162.80;1734045;82;21146;-48
2021/01/28 00:23:24;;;;;;;12.00;7.17;;;;;;;-0.53;82.76;99173.67;1729744;82;21137;-49
2021/01/28 00:25:51;;;;;;;12.68;6.75;;;;;;;-0.52;82.79;99167.55;1723098;82;21634;-49
2021/01/28 00:28:20;;;;;;;12.37;6.92;;;;;;;-0.50;82.91;99177.84;1732210;82;22144;-48
2021/01/28 00:30:51;;;;;;;17.00;8.60;;;;;;;-0.51;82.88;99177.02;1732917;82;21042;-49
2021/01/28 00:33:24;;;;;;;12.07;7.33;;;;;;;-0.50;82.82;99170.05;1727905;81;21137;-49
2021/01/28 00:35:54;;;;;;;9.43;6.05;;;;;;;-0.50;82.76;99175.24;1713476;82;21472;-49
2021/01/28 00:38:27;;;;;;;10.08;6.35;;;;;;;-0.52;82.82;99175.79;1717825;82;22192;-49
2021/01/28 00:40:55;;;;;;;12.95;6.65;;;;;;;-0.54;82.89;99174.59;1723899;82;21148;-50
2021/01/28 00:43:23;;;;;;;11.28;6.70;;;;;;;-0.54;82.90;99167.27;1730877;82;21168;-50
2021/01/28 00:45:51;;;;;;;11.70;6.85;;;;;;;-0.55;82.92;99167.72;1738944;82;21564;-50
2021/01/28 00:48:20;;;;;;;11.80;6.83;;;;;;;-0.55;82.92;99161.70;1732726;82;21625;-48
2021/01/28 00:50:50;;;;;;;11.75;6.90;;;;;;;-0.55;83.01;99152.12;1711190;82;22109;-47
2021/01/28 00:53:17;;;;;;;11.60;6.15;;;;;;;-0.54;83.08;99148.59;1716855;82;21014;-48
2021/01/28 00:55:45;;;;;;;13.22;6.92;;;;;;;-0.52;83.06;99144.59;1713102;82;21154;-48
2021/01/28 00:58:17;;;;;;;11.45;6.60;;;;;;;-0.52;83.03;99132.45;1717638;82;21940;-48
2021/01/28 01:00:46;;;;;;;13.50;7.50;;;;;;;-0.52;82.97;99138.09;1736737;82;21134;-48
2021/01/28 01:03:16;;;;;;;12.25;7.15;;;;;;;-0.56;82.93;99149.14;1728217;82;21449;-48
2021/01/28 01:05:45;;;;;;;14.60;7.50;;;;;;;-0.54;83.01;99149.90;1728081;82;22088;-48
2021/01/28 01:08:17;;;;;;;14.23;7.53;;;;;;;-0.53;83.08;99129.48;1723015;82;21171;-49
2021/01/28 01:10:53;;;;;;;12.60;7.08;;;;;;;-0.54;83.00;99125.20;1719282;82;21106;-49
2021/01/28 01:13:24;;;;;;;14.65;8.33;;;;;;;-0.57;83.06;99133.17;1731290;81;21125;-49
2021/01/28 01:15:54;;;;;;;13.48;7.47;;;;;;;-0.59;83.26;99148.02;1728854;82;22180;-48
2021/01/28 01:18:26;;;;;;;14.45;7.47;;;;;;;-0.57;83.38;99152.67;1728533;82;21034;-49
2021/01/28 01:20:55;;;;;;;16.50;8.33;;;;;;;-0.55;83.37;99140.91;1716080;82;21173;-49
2021/01/28 01:23:24;;;;;;;11.50;7.03;;;;;;;-0.54;83.45;99138.68;1726345;82;21117;-49
2021/01/28 01:26:07;;;;;;;12.58;7.53;;;;;;;-0.52;83.51;99135.05;1713157;82;21170;-49
2021/01/28 01:28:35;;;;;;;12.85;7.12;;;;;;;-0.49;83.46;99138.78;1731531;82;21211;-49
2021/01/28 01:31:08;;;;;;;10.90;6.53;;;;;;;-0.47;83.42;99133.48;1683941;83;21147;-49
2021/01/28 01:33:37;;;;;;;14.13;7.40;;;;;;;-0.47;83.32;99133.48;1726988;82;21129;-48
2021/01/28 01:36:07;;;;;;;12.43;7.37;;;;;;;-0.49;83.23;99130.13;1734942;81;21117;-48
2021/01/28 01:38:37;;;;;;;11.35;6.83;;;;;;;-0.51;83.31;99135.43;1729310;81;21122;-49
2021/01/28 01:41:05;;;;;;;11.18;6.62;;;;;;;-0.53;83.27;99135.98;1734335;82;21470;-48
2021/01/28 01:43:33;;;;;;;14.15;7.50;;;;;;;-0.55;83.35;99125.30;1730260;82;21126;-48
2021/01/28 01:46:06;;;;;;;15.70;8.58;;;;;;;-0.54;83.47;99126.50;1727989;82;22152;-48
2021/01/28 01:48:44;;;;;;;12.68;6.62;;;;;;;-0.54;83.50;99120.00;1725766;81;21118;-48
2021/01/28 01:51:22;;;;;;;10.38;6.30;;;;;;;-0.53;83.52;99115.19;1709599;82;21795;-48
2021/01/28 01:54:02;;;;;;;13.62;7.05;;;;;;;-0.52;83.58;99112.95;1723745;82;21653;-48
2021/01/28 01:56:33;;;;;;;12.85;7.20;;;;;;;-0.50;83.65;99116.31;1694218;81;21772;-48
2021/01/28 01:59:20;;;;;;;14.55;7.65;;;;;;;-0.51;83.65;99100.34;1728175;82;20995;-48
2021/01/28 02:02:17;;;;;;;13.62;7.78;;;;;;;-0.50;83.63;99091.61;1730312;81;22185;-48
2021/01/28 02:05:17;;;;;;;13.60;8.28;;;;;;;-0.51;83.64;99096.88;1726788;81;21146;-49
2021/01/28 02:08:04;;;;;;;12.68;7.50;;;;;;;-0.54;83.64;99100.52;1715767;81;22002;-49
2021/01/28 02:10:50;;;;;;;14.93;7.95;;;;;;;-0.55;83.76;99088.92;1770161;80;21124;-49
2021/01/28 02:13:31;;;;;;;16.57;8.03;;;;;;;-0.51;83.83;99087.78;1830501;77;22921;-49
2021/01/28 02:16:07;;;;;;;15.48;8.05;;;;;;;-0.55;83.95;99087.14;1789149;78;21727;-49
2021/01/28 02:18:36;;;;;;;14.58;8.95;;;;;;;-0.54;83.96;99084.91;1806056;78;21325;-49
2021/01/28 02:21:20;;;;;;;15.40;8.75;;;;;;;-0.54;83.92;99084.09;1807756;78;21345;-49
2021/01/28 02:24:30;;;;;;;14.07;7.92;;;;;;;-0.54;83.98;99083.62;1797278;78;21035;-49
2021/01/28 02:26:57;;;;;;;14.18;8.03;;;;;;;-0.52;84.06;99092.16;1791410;78;21054;-48
2021/01/28 02:29:33;;;;;;;16.17;8.25;;;;;;;-0.47;83.96;99090.58;1718951;79;21509;-48
2021/01/28 02:32:02;;;;;;;17.70;8.45;;;;;;;-0.47;83.88;99074.54;1767311;79;21262;-49
2021/01/28 02:34:30;;;;;;;14.73;8.43;;;;;;;-0.47;83.81;99052.45;1747594;79;22322;-49
2021/01/28 02:37:00;;;;;;;14.87;8.33;;;;;;;-0.48;83.60;99039.52;1808855;78;21849;-49
2021/01/28 02:39:32;;;;;;;15.32;8.73;;;;;;;-0.52;83.67;99047.97;1785738;78;21187;-50
2021/01/28 02:42:27;;;;;;;18.77;10.03;;;;;;;-0.52;83.74;99054.47;1798858;78;21204;-49
2021/01/28 02:45:27;;;;;;;19.12;10.48;;;;;;;-0.50;83.62;99051.32;1831518;76;23428;-48
2021/01/28 02:48:09;;;;;;;16.93;9.48;;;;;;;-0.56;83.70;99053.45;1796960;79;21023;-48
2021/01/28 02:50:40;;;;;;;18.23;9.13;;;;;;;-0.57;83.79;99051.30;1770758;79;21384;-48
2021/01/28 02:53:08;;;;;;;18.05;10.18;;;;;;;-0.56;83.76;99047.77;1784395;79;20985;-49
2021/01/28 02:55:37;;;;;;;16.30;8.80;;;;;;;-0.54;83.76;99042.50;1775308;79;22068;-49
2021/01/28 02:58:05;;;;;;;15.38;9.53;;;;;;;-0.53;83.76;99042.41;1762721;79;20983;-49
2021/01/28 03:00:46;;;;;;;15.70;9.70;;;;;;;-0.48;83.79;99047.31;1842017;76;22723;-48
2021/01/28 03:03:14;;;;;;;18.35;10.23;;;;;;;-0.55;83.93;99054.65;1807920;77;21047;-48
2021/01/28 03:05:44;;;;;;;17.57;10.40;;;;;;;-0.57;84.07;99069.49;1794975;77;21202;-48
2021/01/28 03:08:13;;;;;;;18.77;11.57;;;;;;;-0.60;84.12;99086.12;1799505;78;20995;-49
2021/01/28 03:10:42;;;;;;;18.87;10.43;;;;;;;-0.60;84.26;99086.56;1761183;80;21038;-48
2021/01/28 03:13:13;;;;;;;;;;;;;;;-0.59;84.35;99083.04;1734417;81;21609;-49
2021/01/28 03:15:42;;;;;;;17.60;10.70;;;;;;;-0.58;84.37;99076.92;1718614;81;20917;-48
2021/01/28 03:18:12;;;;;;;17.92;10.72;;;;;;;-0.58;84.38;99060.02;1763537;79;21344;-48
2021/01/28 03:20:40;;;;;;;17.05;9.93;;;;;;;-0.58;84.25;99044.91;1788244;79;21117;-48
2021/01/28 03:23:10;;;;;;;16.67;10.32;;;;;;;-0.60;84.16;99055.37;1737351;82;21619;-49
2021/01/28 03:25:55;;;;;;;16.80;10.30;;;;;;;-0.60;84.26;99056.67;1798250;79;21132;-48
2021/01/28 03:28:22;;;;;;;16.15;9.75;;;;;;;-0.58;84.31;99060.02;1793450;79;21128;-49
2021/01/28 03:30:52;;;;;;;17.57;9.75;;;;;;;-0.57;84.29;99053.90;1757235;80;23157;-49
2021/01/28 03:33:20;;;;;;;17.52;10.43;;;;;;;-0.56;84.29;99049.55;1800400;78;21127;-49
2021/01/28 03:35:50;;;;;;;18.25;9.85;;;;;;;-0.55;84.22;99048.63;1738373;80;21138;-49
2021/01/28 03:38:18;;;;;;;18.30;10.68;;;;;;;-0.56;84.23;99039.16;1778186;79;21144;-48
2021/01/28 03:40:48;;;;;;;19.48;11.22;;;;;;;-0.58;84.16;99035.81;1782054;79;21164;-49
2021/01/28 03:43:16;;;;;;;18.67;10.53;;;;;;;-0.60;84.19;99043.68;1797384;78;21766;-48
2021/01/28 03:45:44;;;;;;;16.15;9.90;;;;;;;-0.61;84.26;99056.30;1787643;79;22108;-49
2021/01/28 03:48:12;;;;;;;16.90;10.15;;;;;;;-0.60;84.29;99060.58;1785913;79;21015;-48
2021/01/28 03:50:50;;;;;;;17.15;10.00;;;;;;;-0.56;84.25;99047.77;1840467;75;22716;-49
2021/01/28 03:53:26;;;;;;;15.78;9.38;;;;;;;-0.60;84.25;99045.83;1799430;76;22415;-48
2021/01/28 03:55:59;;;;;;;18.60;10.05;;;;;;;-0.61;84.21;99036.81;1831656;77;21383;-49
2021/01/28 03:58:28;;;;;;;17.07;10.28;;;;;;;-0.62;84.32;99037.28;1838452;76;21880;-48
2021/01/28 04:01:14;;;;;;;18.92;10.75;;;;;;;-0.60;84.37;99038.03;1823543;76;21052;-49
2021/01/28 04:03:43;;;;;;;22.85;10.65;;;;;;;-0.57;84.37;99053.08;1788890;77;22501;-48
2021/01/28 04:06:16;;;;;;;17.57;10.00;;;;;;;-0.55;84.33;99066.83;1820956;77;21858;-48
2021/01/28 04:09:06;;;;;;;17.37;10.60;;;;;;;-0.49;84.38;99065.14;1835991;77;22787;-48
2021/01/28 04:11:40;;;;;;;16.35;10.68;;;;;;;-0.52;84.37;99059.67;1775727;78;21068;-49
2021/01/28 04:14:16;;;;;;;17.85;10.90;;;;;;;-0.53;84.29;99046.30;1790707;78;21213;-49
2021/01/28 04:16:44;;;;;;;19.20;11.28;;;;;;;-0.54;84.21;99036.01;1783686;78;21026;-49
2021/01/28 04:19:12;;;;;;;19.42;11.03;;;;;;;-0.55;84.27;99042.95;1778577;78;21176;-49
2021/01/28 04:21:45;;;;;;;21.45;11.93;;;;;;;-0.55;84.32;99044.73;1789518;78;22265;-50
2021/01/28 04:24:13;;;;;;;19.50;10.60;;;;;;;-0.55;84.33;99044.73;1782124;78;21046;-49
2021/01/28 04:26:46;;;;;;;20.70;12.05;;;;;;;-0.55;84.40;99046.03;1795140;78;23246;-49
2021/01/28 04:29:15;;;;;;;18.92;11.80;;;;;;;-0.54;84.46;99047.70;1786067;78;21223;-49
2021/01/28 04:31:42;;;;;;;20.82;10.88;;;;;;;-0.52;84.45;99062.72;1784482;78;22454;-48
2021/01/28 04:34:13;;;;;;;19.03;11.13;;;;;;;-0.50;84.35;99059.56;1723886;80;21529;-48
2021/01/28 04:36:41;;;;;;;20.00;11.95;;;;;;;-0.52;84.30;99051.88;1797020;78;21921;-48
2021/01/28 04:39:11;;;;;;;19.07;11.48;;;;;;;-0.53;84.33;99054.58;1767329;78;21443;-49
2021/01/28 04:41:39;;;;;;;18.17;10.20;;;;;;;-0.54;84.29;99052.42;1760533;80;21579;-49
2021/01/28 04:44:08;;;;;;;19.82;11.65;;;;;;;-0.55;84.30;99041.66;1750910;78;22014;-49
2021/01/28 04:46:43;;;;;;;20.12;11.95;;;;;;;-0.54;84.38;99037.30;1774806;78;21523;-49
2021/01/28 04:49:31;;;;;;;18.70;10.88;;;;;;;-0.54;84.36;99039.42;1756411;79;21119;-48
2021/01/28 04:52:17;;;;;;;19.32;11.30;;;;;;;-0.54;84.30;99039.42;1793791;78;21580;-50
2021/01/28 04:54:46;;;;;;;21.15;12.18;;;;;;;-0.55;84.42;99032.55;1779530;78;21137;-49
2021/01/28 04:57:17;;;;;;;18.77;11.08;;;;;;;-0.52;84.44;99025.02;1739097;79;21146;-49
2021/01/28 04:59:50;;;;;;;19.85;12.13;;;;;;;-0.52;84.37;99012.03;1790325;78;20971;-49
2021/01/28 05:02:22;;;;;;;20.55;12.13;;;;;;;-0.52;84.40;99028.48;1795065;78;20979;-49
2021/01/28 05:05:08;;;;;;;20.50;11.50;;;;;;;-0.48;84.42;99038.22;1731149;80;21393;-48
2021/01/28 05:07:46;;;;;;;19.92;10.85;;;;;;;-0.41;84.43;99033.52;1882309;74;22729;-49
2021/01/28 05:10:30;;;;;;;23.10;12.63;;;;;;;-0.45;84.41;99027.64;1869675;75;21826;-49
2021/01/28 05:13:00;;;;;;;19.90;12.13;;;;;;;-0.44;84.39;99020.22;1875548;75;21393;-49
2021/01/28 05:15:41;;;;;;;22.02;13.40;;;;;;;-0.41;84.30;99012.23;1799555;78;21038;-49
2021/01/28 05:18:36;;;;;;;24.18;13.03;;;;;;;-0.35;84.26;99007.97;1870802;76;23106;-49
2021/01/28 05:21:23;;;;;;;24.47;13.30;;;;;;;-0.40;84.21;99001.39;1830023;77;20938;-49
2021/01/28 05:24:05;;;;;;;26.82;13.93;;;;;;;-0.43;84.18;98998.97;1757682;80;21474;-49
2021/01/28 05:26:42;;;;;;;26.73;14.75;;;;;;;-0.45;84.18;99007.70;1763561;78;20992;-49
2021/01/28 05:29:29;;;;;;;25.43;14.13;;;;;;;-0.47;84.10;99010.85;1765755;79;21663;-49
2021/01/28 05:32:04;;;;;;;29.80;14.90;;;;;;;-0.46;84.31;99015.13;1774836;80;21939;-49
2021/01/28 05:34:46;;;;;;;27.40;15.45;;;;;;;-0.41;84.40;99003.14;1739229;80;22737;-48
2021/01/28 05:37:27;;;;;;;29.12;15.60;;;;;;;-0.44;84.36;98990.32;1721295;82;21018;-49
2021/01/28 05:40:12;;;;;;;29.57;14.33;;;;;;;-0.44;84.31;98998.12;1701430;82;21396;-49
2021/01/28 05:42:42;;;;;;;28.70;16.15;;;;;;;-0.43;84.28;99000.27;1702310;82;21093;-49
2021/01/28 05:45:32;;;;;;;29.45;16.25;;;;;;;-0.42;84.28;99001.95;1700958;82;22388;-49
2021/01/28 05:48:30;;;;;;;28.90;17.30;;;;;;;-0.36;84.35;98995.08;1823665;77;22897;-48
2021/01/28 05:51:21;;;;;;;31.23;17.05;;;;;;;-0.40;84.38;98992.29;1739065;79;21016;-49
2021/01/28 05:54:04;;;;;;;34.58;18.35;;;;;;;-0.40;84.34;99009.19;1769274;78;23116;-49
2021/01/28 05:56:57;;;;;;;36.03;17.30;;;;;;;-0.40;84.30;98987.91;1750739;79;21184;-48
2021/01/28 06:00:01;;;;;;;31.77;18.02;;;;;;;-0.40;84.33;98986.61;1765522;78;21210;-49
2021/01/28 06:02:58;;;;;;;33.25;17.17;;;;;;;-0.37;84.45;98979.11;1772831;78;21044;-49
2021/01/28 06:06:02;;;;;;;32.42;17.17;;;;;;;-0.37;84.44;98992.11;1719701;78;21270;-49
2021/01/28 06:08:56;;;;;;;36.50;18.42;;;;;;;-0.35;84.59;99004.08;1716786;80;21229;-49
2021/01/28 06:11:52;;;;;;;35.95;19.52;;;;;;;-0.33;84.61;99010.02;1714628;79;22538;-49
2021/01/28 06:14:46;;;;;;;37.40;18.67;;;;;;;-0.34;84.51;99005.75;1748459;79;21087;-49
2021/01/28 06:18:19;;;;;;;31.25;16.77;;;;;;;-0.27;84.61;99012.73;1856804;75;22764;-49
2021/01/28 06:21:10;;;;;;;36.53;19.30;;;;;;;-0.29;84.66;99017.19;1807331;76;21054;-49
2021/01/28 06:24:15;;;;;;;33.23;17.53;;;;;;;-0.27;84.57;99013.19;1835752;77;21720;-49
2021/01/28 06:27:09;;;;;;;32.42;18.00;;;;;;;-0.30;84.53;99006.41;1829127;76;20992;-49
2021/01/28 06:30:02;;;;;;;34.78;18.12;;;;;;;-0.29;84.55;99005.48;1828898;77;22495;-49
2021/01/28 06:33:22;;;;;;;33.53;17.35;;;;;;;-0.27;84.61;98999.73;1831674;76;21853;-48
2021/01/28 06:36:17;;;;;;;35.23;18.10;;;;;;;-0.25;84.61;98990.52;1838195;77;21168;-49
2021/01/28 06:39:29;;;;;;;35.28;21.97;;;;;;;-0.18;84.55;98989.23;1752517;77;27986;-49
2021/01/28 06:42:29;;;;;;;35.50;17.95;;;;;;;-0.16;84.43;98979.12;1750105;80;21233;-49
2021/01/28 06:45:10;;;;;;;39.23;19.50;;;;;;;-0.13;84.22;98981.98;1742677;80;21395;-49
2021/01/28 06:48:02;;;;;;;34.83;18.05;;;;;;;-0.17;84.29;98985.25;1742633;80;21575;-49
2021/01/28 06:51:24;;;;;;;39.98;20.57;;;;;;;-0.10;84.36;98990.08;1815438;76;22840;-49
2021/01/28 06:53:58;;;;;;;40.53;20.60;;;;;;;-0.14;84.44;98984.69;1800299;78;21094;-49
2021/01/28 06:56:57;;;;;;;37.75;19.92;;;;;;;-0.12;84.49;98982.84;1774767;78;21175;-49
2021/01/28 06:59:56;;;;;;;40.05;19.75;;;;;;;-0.14;84.56;98970.39;1776749;78;21215;-49
2021/01/28 07:02:45;;;;;;;36.20;17.77;;;;;;;-0.14;84.79;98974.29;1689018;81;21227;-49
2021/01/28 07:05:45;;;;;;;36.42;18.62;;;;;;;-0.12;84.89;98972.43;1715372;81;21545;-49
2021/01/28 07:08:48;;;;;;;37.95;18.52;;;;;;;-0.11;84.98;98971.02;1707461;83;21890;-49
2021/01/28 07:11:26;;;;;;;54.95;25.35;;;;;;;;;;1708073;83;21207;-49
2021/01/28 07:14:15;;;;;;;35.40;17.23;;;;;;;-0.08;85.15;98968.72;1707374;83;21069;-49
2021/01/28 07:17:20;;;;;;;32.08;16.37;;;;;;;-0.08;85.14;98970.02;1709132;83;21923;-49
2021/01/28 07:20:01;;;;;;;32.90;16.80;;;;;;;-0.07;85.11;98972.50;1733538;81;21208;-48
2021/01/28 07:22:38;;;;;;;30.50;16.05;;;;;;;-0.07;85.13;98966.48;1697300;82;21162;-49
2021/01/28 07:25:33;;;;;;;30.88;16.60;;;;;;;-0.06;85.10;98957.75;1711424;83;21653;-49
2021/01/28 07:28:20;;;;;;;27.17;12.68;;;;;;;-0.05;85.28;98952.92;1737794;81;21019;-49
2021/01/28 07:31:09;;;;;;;30.68;14.40;;;;;;;-0.02;85.36;98941.84;1720453;82;22072;-48
2021/01/28 07:33:48;;;;;;;25.17;14.33;;;;;;;0.01;85.32;98939.50;1699570;83;21122;-48
2021/01/28 07:36:30;;;;;;;28.27;13.78;;;;;;;0.03;85.14;98933.73;1696629;83;21134;-48
2021/01/28 07:39:35;;;;;;;23.77;12.82;;;;;;;0.03;85.23;98928.53;1727872;81;22882;-48
2021/01/28 07:42:30;;;;;;;26.77;13.60;;;;;;;0.08;85.17;98944.70;1741176;81;21911;-48
2021/01/28 07:45:24;;;;;;;26.30;13.50;;;;;;;0.14;85.11;98940.89;1796909;76;22727;-48
2021/01/28 07:47:55;;;;;;;26.85;14.85;;;;;;;0.11;85.10;98949.71;1811268;76;21153;-49
2021/01/28 07:50:34;;;;;;;25.13;13.63;;;;;;;0.17;85.09;98947.66;1803956;76;21613;-49
2021/01/28 07:53:38;;;;;;;30.12;14.23;;;;;;;0.21;84.88;98949.98;1795913;76;21911;-49
2021/01/28 07:56:08;;;;;;;22.48;11.93;;;;;;;0.21;84.69;98951.73;1797405;77;21980;-49
2021/01/28 07:58:35;;;;;;;26.30;13.62;;;;;;;0.21;84.65;98954.34;1760516;77;21650;-49
2021/01/28 08:01:07;;;;;;;26.90;12.93;;;;;;;0.22;84.59;98952.11;1813981;76;21691;-49
2021/01/28 08:03:56;;;;;;;35.00;16.80;;;;;;;0.22;84.72;98946.45;1731504;77;21195;-49
2021/01/28 08:06:24;;;;;;;30.68;16.10;;;;;;;0.25;84.62;98945.41;1780768;76;21436;-49
2021/01/28 08:09:09;;;;;;;36.70;19.62;;;;;;;0.25;84.67;98955.83;1788895;79;21032;-49
2021/01/28 08:11:39;;;;;;;49.65;24.95;;;;;;;0.24;84.70;98956.30;1772259;77;21915;-50
2021/01/28 08:14:09;;;;;;;34.55;16.73;;;;;;;0.31;84.79;98955.92;1777982;77;21428;-50
2021/01/28 08:16:37;;;;;;;21.95;12.18;;;;;;;0.35;84.83;98958.70;1741029;79;21225;-50
2021/01/28 08:19:13;;;;;;;16.93;10.05;;;;;;;0.38;84.75;98961.93;1778478;77;21193;-49
2021/01/28 08:21:42;;;;;;;18.20;10.45;;;;;;;0.41;84.70;98966.13;1778747;77;21165;-49
2021/01/28 08:24:21;;;;;;;15.90;9.98;;;;;;;0.40;84.64;98972.26;1776360;77;20920;-50
2021/01/28 08:26:48;;;;;;;19.73;10.68;;;;;;;0.41;84.71;98968.73;1779044;77;20913;-49
2021/01/28 08:29:19;;;;;;;20.30;11.12;;;;;;;0.42;84.73;98971.22;1772805;77;23038;-50
2021/01/28 08:31:53;;;;;;;17.40;9.53;;;;;;;0.44;84.71;98968.05;1778807;77;21113;-49
2021/01/28 08:34:26;;;;;;;18.98;10.10;;;;;;;0.44;84.62;98961.55;1773782;77;20987;-50
2021/01/28 08:37:02;;;;;;;19.45;10.10;;;;;;;0.47;84.55;98954.47;1789493;78;22153;-48
2021/01/28 08:39:34;;;;;;;15.28;9.50;;;;;;;0.50;84.60;98954.27;1742991;80;21125;-49
2021/01/28 08:42:13;;;;;;;17.85;10.40;;;;;;;0.54;84.67;98951.36;1776460;77;21413;-49
2021/01/28 08:44:43;;;;;;;20.27;9.78;;;;;;;0.58;84.78;98957.23;1770989;77;21127;-49
2021/01/28 08:47:21;;;;;;;19.70;11.20;;;;;;;0.67;84.74;98948.83;1772486;77;22139;-48
2021/01/28 08:50:17;;;;;;;18.12;9.88;;;;;;;0.73;84.62;98942.37;1770158;77;20967;-49
2021/01/28 08:52:45;;;;;;;18.65;10.40;;;;;;;0.82;84.61;98952.19;1780379;77;21982;-49
2021/01/28 08:55:34;;;;;;;17.70;9.93;;;;;;;0.92;84.53;98951.59;1789490;77;22435;-49
2021/01/28 08:58:18;;;;;;;19.75;9.58;;;;;;;0.98;84.12;98944.67;1777785;77;20971;-49
2021/01/28 09:00:53;;;;;;;17.30;9.38;;;;;;;0.98;83.67;98946.83;1788242;78;20981;-49
2021/01/28 09:03:25;;;;;;;15.72;9.65;;;;;;;0.97;83.33;98937.80;1747169;80;21155;-49
2021/01/28 09:05:58;;;;;;;16.80;9.15;;;;;;;0.90;83.16;98949.10;1740749;79;21000;-49
2021/01/28 09:08:39;;;;;;;15.78;9.15;;;;;;;0.88;83.25;98945.77;1750552;80;22806;-49
2021/01/28 09:11:23;;;;;;;18.52;9.78;;;;;;;0.86;83.25;98937.21;1743447;81;21059;-49
2021/01/28 09:14:29;;;;;;;16.35;9.08;;;;;;;0.81;83.06;98930.98;1737482;81;20936;-49
2021/01/28 09:17:01;;;;;;;21.25;10.10;;;;;;;0.79;83.03;98932.03;1734952;80;21887;-49
2021/01/28 09:19:33;;;;;;;17.77;9.40;;;;;;;0.76;82.89;98925.23;1733461;81;21125;-49
2021/01/28 09:22:04;;;;;;;16.90;9.77;;;;;;;0.75;83.06;98913.16;1759568;78;21394;-49
2021/01/28 09:24:36;;;;;;;17.57;9.08;;;;;;;0.79;83.27;98903.38;1774027;79;21292;-49
2021/01/28 09:27:32;;;;;;;20.02;10.13;;;;;;;0.83;83.37;98905.67;1777408;77;21075;-49
2021/01/28 09:30:23;;;;;;;16.85;9.05;;;;;;;0.88;83.47;98920.53;1779796;77;21091;-49
2021/01/28 09:32:51;;;;;;;17.15;9.03;;;;;;;0.97;83.56;98916.50;1747493;79;20980;-49
2021/01/28 09:35:23;;;;;;;16.65;9.35;;;;;;;1.08;83.57;98920.98;1741250;80;21447;-49
2021/01/28 09:38:14;;;;;;;16.70;8.68;;;;;;;1.13;83.34;98916.30;1771739;78;20988;-49
2021/01/28 09:40:44;;;;;;;15.63;9.48;;;;;;;1.15;82.80;98901.84;1752631;80;20964;-49
2021/01/28 09:43:32;;;;;;;15.75;9.60;;;;;;;1.13;82.69;98899.81;1762315;79;20976;-49
2021/01/28 09:46:10;;;;;;;16.40;9.05;;;;;;;1.13;82.55;98910.23;1783740;78;21126;-48
2021/01/28 09:48:38;;;;;;;19.35;10.13;;;;;;;1.10;82.46;98906.53;1754801;79;21329;-49
2021/01/28 09:51:08;;;;;;;49.70;23.32;;;;;;;1.10;82.61;98910.44;1779884;78;21570;-49
2021/01/28 09:53:36;;;;;;;14.35;8.50;;;;;;;1.13;82.58;98903.27;1789629;79;21165;-48
2021/01/28 09:56:04;;;;;;;16.15;9.38;;;;;;;1.16;82.58;98893.09;1780839;78;22155;-48
2021/01/28 09:58:32;;;;;;;14.35;8.28;;;;;;;1.17;82.52;98881.27;1777100;78;20955;-49
2021/01/28 10:00:59;;;;;;;16.67;8.48;;;;;;;1.19;82.53;98877.24;1785800;78;21356;-49
2021/01/28 10:03:27;;;;;;;19.12;10.23;;;;;;;1.16;82.45;98879.61;1730882;81;20992;-49
2021/01/28 10:05:54;;;;;;;15.10;8.25;;;;;;;1.16;82.65;98882.21;1734109;79;22151;-49
2021/01/28 10:08:24;;;;;;;19.82;10.35;;;;;;;1.14;82.53;98872.81;1777063;79;21967;-49
2021/01/28 10:10:52;;;;;;;16.30;8.23;;;;;;;1.11;82.55;98869.95;1788446;78;21579;-50
2021/01/28 10:13:20;;;;;;;14.95;8.63;;;;;;;1.11;82.75;98864.75;1775666;78;21203;-48
2021/01/28 10:15:48;;;;;;;13.30;7.50;;;;;;;1.12;82.87;98870.78;1742852;80;21149;-49
2021/01/28 10:18:17;;;;;;;16.52;7.90;;;;;;;1.14;82.88;98872.36;1785418;78;22000;-49
2021/01/28 10:20:46;;;;;;;11.75;6.75;;;;;;;1.14;82.80;98872.36;1776953;78;20982;-49
2021/01/28 10:23:14;;;;;;;13.32;7.33;;;;;;;1.16;82.75;98873.55;1787950;78;21700;-49
2021/01/28 10:25:42;;;;;;;12.65;7.60;;;;;;;1.17;82.82;98875.21;1780052;78;21351;-49
2021/01/28 10:28:10;;;;;;;17.32;8.93;;;;;;;1.20;82.81;98875.48;1789188;78;21395;-48
2021/01/28 10:30:38;;;;;;;17.17;9.40;;;;;;;1.22;82.70;98867.09;1751198;81;22311;-49
2021/01/28 10:33:05;;;;;;;18.35;9.18;;;;;;;1.20;82.45;98879.39;1771065;78;20945;-49
2021/01/28 10:35:33;;;;;;;17.80;8.73;;;;;;;1.17;82.47;98876.06;1785141;78;21106;-49
2021/01/28 10:38:04;;;;;;;12.55;7.65;;;;;;;1.17;82.61;98872.60;1781087;78;21359;-49
2021/01/28 10:40:32;;;;;;;12.43;7.37;;;;;;;1.12;82.61;98872.08;1748186;79;21124;-48
2021/01/28 10:43:04;;;;;;;14.78;8.20;;;;;;;1.10;82.78;98860.92;1757354;80;21621;-48
2021/01/28 10:45:35;;;;;;;14.20;7.55;;;;;;;1.07;82.66;98863.28;1785938;79;21115;-48
2021/01/28 10:48:04;;;;;;;14.40;8.08;;;;;;;1.05;82.98;98869.55;1754834;80;25923;-48
2021/01/28 10:50:34;;;;;;;13.22;7.35;;;;;;;1.10;83.22;98863.53;1777936;78;21199;-48
2021/01/28 10:53:02;;;;;;;14.35;8.05;;;;;;;1.11;83.16;98859.98;1751287;79;22142;-49
2021/01/28 10:55:31;;;;;;;13.08;7.80;;;;;;;1.09;82.93;98858.80;1787655;78;20965;-49
2021/01/28 10:57:58;;;;;;;13.28;6.87;;;;;;;1.09;83.01;98860.56;1792489;78;20964;-49
2021/01/28 11:00:27;;;;;;;11.20;6.42;;;;;;;1.10;83.07;98864.83;1795258;78;21606;-49
2021/01/28 11:02:55;;;;;;;10.58;6.85;;;;;;;1.09;83.12;98873.59;1787591;78;21377;-49
2021/01/28 11:05:36;;;;;;;11.30;6.95;;;;;;;1.09;83.13;98874.89;1782067;78;21159;-49
2021/01/28 11:08:05;;;;;;;12.43;7.05;;;;;;;1.08;83.25;98885.80;1787990;78;21640;-49
2021/01/28 11:10:33;;;;;;;11.50;7.10;;;;;;;1.09;83.21;98882.71;1793016;78;20977;-49
2021/01/28 11:13:01;;;;;;;12.05;6.97;;;;;;;1.07;83.12;98888.04;1778634;78;21086;-48
2021/01/28 11:15:33;;;;;;;10.82;6.12;;;;;;;1.03;83.19;98890.03;1757627;78;23019;-49
2021/01/28 11:18:01;;;;;;;12.40;7.33;;;;;;;1.02;83.18;98891.42;1789435;78;20976;-49
2021/01/28 11:20:31;;;;;;;14.53;9.00;;;;;;;0.97;83.23;98884.38;1784861;78;21012;-49
2021/01/28 11:22:59;;;;;;;13.43;9.85;;;;;;;0.94;83.39;98869.80;1789767;77;21580;-49
2021/01/28 11:25:27;;;;;;;16.00;11.60;;;;;;;0.91;83.53;98868.70;1792030;78;20984;-49
2021/01/28 11:27:55;;;;;;;11.43;8.10;;;;;;;0.87;83.65;98860.73;1792858;79;21382;-49
2021/01/28 11:30:27;;;;;;;11.03;8.35;;;;;;;0.81;83.78;98858.05;1798960;78;21736;-50
2021/01/28 11:32:54;;;;;;;10.43;7.28;;;;;;;0.79;83.93;98848.69;1795193;78;20973;-49
2021/01/28 11:35:24;;;;;;;14.43;8.60;;;;;;;0.79;84.01;98844.29;1794036;79;21430;-49
2021/01/28 11:37:53;;;;;;;10.93;8.23;;;;;;;0.77;84.07;98831.84;1788923;78;21103;-49
2021/01/28 11:40:22;;;;;;;11.33;7.90;;;;;;;0.74;84.18;98832.04;1771310;78;21622;-49
2021/01/28 11:42:50;;;;;;;11.63;7.30;;;;;;;0.76;84.38;98826.75;1785723;78;20941;-49
2021/01/28 11:45:23;;;;;;;11.33;7.40;;;;;;;0.78;84.52;98831.38;1767641;78;21109;-49
2021/01/28 11:47:51;;;;;;;12.03;6.90;;;;;;;0.77;84.52;98836.23;1765432;79;21115;-49
2021/01/28 11:50:21;;;;;;;10.40;5.87;;;;;;;0.73;84.58;98833.83;1742656;81;21529;-49
2021/01/28 11:52:49;;;;;;;11.12;7.87;;;;;;;0.74;84.73;98834.64;1765379;78;21381;-49
2021/01/28 11:55:20;;;;;;;11.83;7.12;;;;;;;0.76;84.83;98826.75;1765643;79;20985;-49
2021/01/28 11:57:51;;;;;;;12.78;6.58;;;;;;;0.79;84.87;98822.16;1770979;79;21626;-50
2021/01/28 12:00:20;;;;;;;12.03;6.78;;;;;;;0.82;84.92;98802.89;1757647;80;21733;-49
2021/01/28 12:02:48;;;;;;;12.20;6.42;;;;;;;0.85;84.84;98800.90;1758061;79;21223;-49
2021/01/28 12:05:19;;;;;;;14.10;8.38;;;;;;;0.92;84.87;98793.97;1765118;78;21372;-49
2021/01/28 12:07:47;;;;;;;12.10;7.30;;;;;;;0.97;84.56;98794.49;1758425;81;24216;-49